Time;durP1;ratioP1;P1;durP2;ratioP2;P2;SDS_P1;SDS_P2;PMS_P1;PMS_P2;Temp;Humidity;BMP_temperature;BMP_pressure;BME280_temperature;BME280_humidity;BME280_pressure;Samples;Min_cycle;Max_cycle;Signal;HPM_P1;HPM_P2
2023/06/23 07:01:19;;;;;;;0.10;0.10;;;32.00;99.90;36.10;102275.00;;;;6219724;22;1365980;-64
2023/06/23 07:03:46;;;;;;;4.43;3.13;;;31.90;99.90;33.50;102310.00;;;;6225985;22;20627;-63
2023/06/23 07:06:13;;;;;;;0.10;0.10;;;31.10;99.90;34.40;102282.00;;;;6226354;22;20152;-63
2023/06/23 07:08:41;;;;;;;0.10;0.10;;;30.30;99.90;35.20;102305.00;;;;6250881;22;20160;-63
2023/06/23 07:11:13;;;;;;;0.30;0.30;;;30.60;99.90;35.70;102301.00;;;;6251209;22;20457;-63
2023/06/23 07:13:39;;;;;;;0.10;0.10;;;31.40;99.90;37.30;102275.00;;;;6251246;22;20157;-63
2023/06/23 07:16:05;;;;;;;0.40;0.40;;;32.30;99.90;38.70;102267.00;;;;6251532;22;20153;-64
2023/06/23 07:18:34;;;;;;;0.10;0.10;;;33.30;99.90;39.20;102267.00;;;;6251272;22;20471;-63
2023/06/23 07:21:02;;;;;;;1.10;1.10;;;34.20;99.90;39.90;102311.00;;;;6278311;22;20220;-64
2023/06/23 07:23:31;;;;;;;1.55;1.45;;;34.90;99.90;35.90;102338.00;;;;6278099;22;20593;-63
2023/06/23 07:25:59;;;;;;;0.10;0.10;;;33.70;99.90;37.00;102335.00;;;;6251524;22;20450;-63
2023/06/23 07:28:25;;;;;;;3.60;1.70;;;32.80;99.90;35.60;102322.00;;;;6251373;22;20145;-63
2023/06/23 07:31:00;;;;;;;0.10;0.10;;;32.10;99.90;37.60;102328.00;;;;6277025;22;20696;-63
2023/06/23 07:33:26;;;;;;;2.63;2.42;;;32.80;99.90;35.70;102335.00;;;;6251421;22;20153;-63
2023/06/23 07:35:54;;;;;;;0.85;0.85;;;32.50;99.90;34.60;102352.00;;;;6278218;22;20225;-63
2023/06/23 07:38:22;;;;;;;0.10;0.10;;;31.40;99.90;36.30;102332.00;;;;6250806;22;20252;-63
2023/06/23 07:40:48;;;;;;;8.93;5.50;;;32.00;99.90;34.00;102343.00;;;;6251299;22;20141;-63
2023/06/23 07:43:14;;;;;;;0.10;0.10;;;30.90;99.90;35.10;102342.00;;;;6250931;22;20542;-63
2023/06/23 07:45:40;;;;;;;1.15;1.08;;;31.10;99.90;36.50;102338.00;;;;6277991;22;20250;-63
2023/06/23 07:48:12;;;;;;;0.10;0.10;;;31.90;99.90;38.40;102330.00;;;;6278257;22;20471;-63
2023/06/23 07:50:38;;;;;;;0.38;0.38;;;33.30;99.90;38.40;102305.00;;;;6277698;22;20141;-63
2023/06/23 07:53:06;;;;;;;0.10;0.10;;;34.40;99.90;38.70;102294.00;;;;6225601;22;20596;-63
2023/06/23 07:55:32;;;;;;;0.32;0.30;;;34.60;99.90;38.90;102315.00;;;;6250770;22;20167;-64
2023/06/23 07:57:58;;;;;;;0.80;0.80;;;34.70;99.90;38.40;102324.00;;;;6278226;22;20149;-63
2023/06/23 08:00:29;;;;;;;0.10;0.10;;;34.70;99.90;39.50;102292.00;;;;6277189;22;20176;-63
2023/06/23 08:03:03;;;;;;;0.45;0.45;;;35.10;99.90;40.30;102314.00;;;;6250854;22;20214;-64
2023/06/23 08:05:32;;;;;;;0.10;0.10;;;35.80;99.90;40.50;102302.00;;;;6277322;22;20136;-64
2023/06/23 08:08:04;;;;;;;0.10;0.10;;;36.10;99.90;40.70;102280.00;;;;6226301;22;20160;-64
2023/06/23 08:10:37;;;;;;;0.55;0.55;;;36.30;99.90;41.10;102299.00;;;;6277824;22;20229;-64
2023/06/23 08:13:08;;;;;;;0.85;0.47;;;36.60;99.90;39.30;102298.00;;;;6250829;22;20161;-64
2023/06/23 08:15:41;;;;;;;0.10;0.10;;;35.90;99.90;36.10;102336.00;;;;6250562;22;20244;-63
2023/06/23 08:18:10;;;;;;;0.30;0.30;;;34.50;99.90;35.60;102341.00;;;;6251109;22;20137;-63
2023/06/23 08:20:44;;;;;;;0.10;0.10;;;33.20;99.90;37.10;102338.00;;;;6225386;22;20157;-63
2023/06/23 08:23:18;;;;;;;0.10;0.10;;;33.50;99.90;38.70;102330.00;;;;6250977;22;20161;-63
2023/06/23 08:25:52;;;;;;;2.33;0.57;;;34.30;99.90;38.20;102336.00;;;;6251860;22;20554;-63
2023/06/23 08:28:25;;;;;;;0.10;0.10;;;34.60;99.90;36.90;102341.00;;;;6250882;22;20148;-63
2023/06/23 08:30:53;;;;;;;0.45;0.45;;;33.50;99.90;38.80;102326.00;;;;6250796;22;20161;-63
2023/06/23 08:33:27;;;;;;;0.15;0.15;;;34.50;99.90;40.20;102330.00;;;;6250339;22;20148;-63
2023/06/23 08:36:05;;;;;;;0.90;0.90;;;35.50;99.90;40.90;102303.00;;;;6277516;22;20565;-64
2023/06/23 08:38:33;;;;;;;0.10;0.10;;;36.20;99.90;37.20;102348.00;;;;6250721;22;20145;-63
2023/06/23 08:41:09;;;;;;;2.33;1.25;;;35.40;99.90;36.70;102353.00;;;;6277306;22;20137;-63
2023/06/23 08:43:39;;;;;;;0.60;0.60;;;33.60;99.90;34.20;102366.00;;;;6277090;22;20160;-63
2023/06/23 08:46:17;;;;;;;0.10;0.10;;;31.60;99.90;37.10;102362.00;;;;6250679;22;20553;-63
2023/06/23 08:48:51;;;;;;;0.10;0.10;;;32.60;99.90;38.70;102361.00;;;;6225733;22;20302;-63
2023/06/23 08:51:20;;;;;;;2.75;1.35;;;33.90;99.90;38.10;102352.00;;;;6249919;22;20147;-64
2023/06/23 08:53:50;;;;;;;0.10;0.10;;;34.20;99.90;38.80;102357.00;;;;6277555;22;20141;-63
2023/06/23 08:56:19;;;;;;;0.10;0.10;;;34.40;99.90;37.90;102354.00;;;;6250654;22;20147;-63
2023/06/23 08:58:53;;;;;;;0.20;0.20;;;34.60;99.90;36.10;102376.00;;;;6277470;22;20151;-63
2023/06/23 09:01:26;;;;;;;0.30;0.30;;;33.00;99.90;35.00;102393.00;;;;6251036;22;20195;-63
2023/06/23 09:03:57;;;;;;;0.03;0.03;;;32.60;99.90;37.00;102381.00;;;;6277131;22;20176;-63
2023/06/23 09:06:25;;;;;;;0.10;0.10;;;32.90;99.90;37.60;102370.00;;;;6277401;22;20156;-63
2023/06/23 09:08:58;;;;;;;0.32;0.32;;;33.30;99.90;38.70;102373.00;;;;6250533;22;20157;-63
2023/06/23 09:11:28;;;;;;;0.10;0.10;;;34.30;99.90;38.00;102376.00;;;;6251090;22;20160;-63
2023/06/23 09:14:01;;;;;;;1.35;1.17;;;34.50;99.90;37.40;102387.00;;;;6277413;22;20173;-63
2023/06/23 09:16:33;;;;;;;0.10;0.10;;;34.40;99.90;38.00;102355.00;;;;6249514;22;20168;-63
2023/06/23 09:19:04;;;;;;;0.47;0.47;;;34.40;99.90;38.20;102371.00;;;;6224671;22;20161;-63
2023/06/23 09:21:33;;;;;;;0.10;0.10;;;34.30;99.90;36.10;102376.00;;;;6250207;22;20145;-63
2023/06/23 09:24:05;;;;;;;0.65;0.65;;;34.00;99.90;37.20;102385.00;;;;6250937;22;20141;-63
2023/06/23 09:26:54;;;;;;;0.20;0.20;;;33.60;99.90;37.50;102391.00;;;;6224334;22;20165;-63
2023/06/23 09:29:27;;;;;;;0.13;0.13;;;33.90;99.90;38.10;102375.00;;;;6250521;22;20216;-63
2023/06/23 09:31:59;;;;;;;1.25;0.55;;;33.80;99.90;37.50;102383.00;;;;6277336;22;20203;-63
2023/06/23 09:34:37;;;;;;;0.10;0.10;;;33.80;99.90;38.60;102367.00;;;;6276540;22;20565;-63
2023/06/23 09:37:12;;;;;;;1.45;1.20;;;34.20;99.90;39.20;102372.00;;;;6251809;22;20137;-63
2023/06/23 09:39:48;;;;;;;0.10;0.10;;;34.90;99.90;34.10;102415.00;;;;6249844;22;20182;-63
2023/06/23 09:42:22;;;;;;;0.10;0.10;;;33.00;99.90;37.60;102398.00;;;;6225036;22;20510;-63
2023/06/23 09:44:51;;;;;;;0.80;0.75;;;33.10;99.90;38.80;102375.00;;;;6249922;22;20214;-63
2023/06/23 09:47:21;;;;;;;0.10;0.10;;;34.20;99.90;39.90;102374.00;;;;6249419;22;20213;-63
2023/06/23 09:49:49;;;;;;;0.85;0.85;;;35.10;99.90;35.00;102374.00;;;;6250538;22;20145;-63
2023/06/23 09:52:27;;;;;;;0.25;0.25;;;33.60;99.90;36.40;102399.00;;;;6249665;22;20565;-63
2023/06/23 09:55:06;;;;;;;0.50;0.50;;;32.90;99.90;34.80;102401.00;;;;6276782;22;20196;-63
2023/06/23 09:57:34;;;;;;;0.32;0.32;;;32.30;99.90;35.00;102391.00;;;;6276942;22;20175;-63
2023/06/23 10:00:02;;;;;;;0.30;0.30;;;32.00;99.90;35.10;102388.00;;;;6249457;22;20176;-63
2023/06/23 10:02:31;;;;;;;2.13;0.90;;;31.30;99.90;31.80;102411.00;;;;6249143;22;20180;-63
2023/06/23 10:05:05;;;;;;;3.00;1.67;;;30.00;99.90;33.80;102397.00;;;;6277069;22;20150;-63
2023/06/23 10:07:35;;;;;;;0.10;0.10;;;29.70;99.90;36.00;102391.00;;;;6249660;22;20578;-63
2023/06/23 10:10:05;;;;;;;0.50;0.50;;;31.10;99.90;35.70;102397.00;;;;6249767;22;20145;-63
2023/06/23 10:12:39;;;;;;;0.70;0.70;;;31.70;99.90;34.80;102405.00;;;;6275088;22;20222;-63
2023/06/23 10:15:16;;;;;;;2.53;1.63;;;31.60;99.90;33.70;102422.00;;;;6276920;22;20218;-63
2023/06/23 10:17:48;;;;;;;0.45;0.45;;;30.70;99.90;30.70;102441.00;;;;6249864;22;20157;-63
2023/06/23 10:20:19;;;;;;;0.10;0.10;;;28.40;99.90;35.30;102401.00;;;;6250137;22;20191;-63
2023/06/23 10:33:30;;;;;;;0.20;0.20;;;31.70;99.90;35.20;102405.00;;;;5100493;27;20603;-63
2023/06/23 10:36:04;;;;;;;0.65;0.65;;;32.30;99.90;37.50;102402.00;;;;5078536;28;20643;-63
2023/06/23 10:38:44;;;;;;;0.90;0.90;;;33.10;99.90;37.60;102396.00;;;;5080582;28;20741;-63
2023/06/23 10:41:11;;;;;;;0.43;0.43;;;33.50;99.90;36.70;102407.00;;;;5080017;28;20234;-63
2023/06/23 10:43:46;;;;;;;0.20;0.20;;;33.10;99.90;37.10;102411.00;;;;5076419;28;20650;-63
2023/06/23 10:46:14;;;;;;;1.45;0.30;;;32.80;99.90;36.60;102415.00;;;;5063345;28;20185;-63
2023/06/23 10:48:45;;;;;;;1.48;1.38;;;32.70;99.90;33.70;102438.00;;;;5081373;28;20208;-63
2023/06/23 10:51:12;;;;;;;0.63;0.40;;;31.90;99.90;36.00;102416.00;;;;5081192;28;20181;-63
2023/06/23 10:53:59;;;;;;;1.13;1.02;;;31.90;99.90;37.30;102404.00;;;;5068601;28;20194;-63
2023/06/23 10:56:38;;;;;;;0.10;0.10;;;33.00;99.90;37.00;102408.00;;;;5062984;28;20182;-63
2023/06/23 10:59:44;;;;;;;0.10;0.10;;;33.50;99.90;32.30;102440.00;;;;5080120;28;20193;-63
2023/06/23 11:02:20;;;;;;;2.33;2.00;;;30.70;99.90;31.70;102445.00;;;;5050966;28;20206;-62
2023/06/23 11:04:56;;;;;;;0.70;0.70;;;29.00;99.90;32.20;102444.00;;;;5036535;28;20197;-63
2023/06/23 11:07:24;;;;;;;0.13;0.13;;;28.40;99.90;31.10;102436.00;;;;5081975;28;20629;-63
2023/06/23 11:10:04;;;;;;;1.02;1.02;;;28.00;99.90;32.40;102444.00;;;;5075786;28;20205;-63
2023/06/23 11:12:45;;;;;;;0.10;0.10;;;28.30;99.90;32.60;102436.00;;;;5065711;28;20197;-63
2023/06/23 11:15:20;;;;;;;0.10;0.10;;;28.70;99.90;34.80;102416.00;;;;5068729;28;20201;-63
2023/06/23 11:18:01;;;;;;;0.10;0.10;;;29.90;99.90;35.50;102407.00;;;;5071450;28;20666;-63
2023/06/23 11:20:42;;;;;;;0.10;0.10;;;31.20;99.90;35.50;102378.00;;;;5068226;28;20276;-63
2023/06/23 11:23:14;;;;;;;0.10;0.10;;;31.50;99.90;35.00;102415.00;;;;5068717;28;20268;-63
2023/06/23 11:25:52;;;;;;;0.28;0.25;;;31.10;99.90;35.10;102407.00;;;;5083751;28;20189;-63
2023/06/23 11:28:38;;;;;;;0.50;0.50;;;30.90;99.90;33.00;102412.00;;;;5083033;28;20192;-63
2023/06/23 11:31:15;;;;;;;5.28;0.90;;;29.60;99.90;34.70;102399.00;;;;5074192;28;20581;-63
2023/06/23 11:40:01;;;;;;;3.63;0.40;;;33.10;99.90;36.30;102400.00;;;;5054219;28;20224;-63
2023/06/23 11:42:27;;;;;;;1.60;1.30;;;32.90;99.90;36.30;102383.00;;;;5052560;28;20279;-63
2023/06/23 11:45:01;;;;;;;0.10;0.10;;;32.80;99.90;36.30;102396.00;;;;5042403;28;20198;-63
2023/06/23 11:47:33;;;;;;;0.10;0.10;;;32.70;99.90;35.20;102404.00;;;;5038115;28;20226;-63
2023/06/23 11:50:03;;;;;;;1.02;0.75;;;32.50;99.90;36.40;102394.00;;;;5040826;28;20225;-63
2023/06/23 11:52:36;;;;;;;0.20;0.20;;;32.70;99.90;32.40;102416.00;;;;5044635;28;20301;-63
2023/06/23 11:55:07;;;;;;;1.33;1.23;;;31.20;99.90;32.10;102418.00;;;;5032817;28;20276;-63
2023/06/23 11:57:36;;;;;;;0.10;0.10;;;29.50;99.90;34.20;102397.00;;;;5046885;28;20202;-63
2023/06/23 12:00:06;;;;;;;0.10;0.10;;;29.70;99.90;35.20;102389.00;;;;5030385;28;20199;-63
2023/06/23 12:02:38;;;;;;;0.10;0.10;;;30.40;99.90;33.30;102405.00;;;;5045640;28;20194;-63
2023/06/23 12:05:05;;;;;;;0.95;0.95;;;30.40;99.90;33.10;102376.00;;;;5039887;28;20687;-63
2023/06/23 12:07:34;;;;;;;1.10;1.00;;;29.90;99.90;31.60;102416.00;;;;5038894;28;20202;-63
2023/06/23 12:10:05;;;;;;;0.22;0.22;;;28.60;99.90;33.30;102411.00;;;;5041621;28;20199;-63
2023/06/23 12:12:32;;;;;;;0.20;0.20;;;29.00;99.90;34.60;102393.00;;;;5039216;28;20205;-63
2023/06/23 12:15:03;;;;;;;4.93;1.30;;;30.00;99.90;34.30;102398.00;;;;5040463;28;20281;-62
2023/06/23 12:17:47;;;;;;;0.10;0.10;;;30.50;99.90;34.70;102402.00;;;;5051637;28;20237;-63
2023/06/23 12:20:20;;;;;;;1.27;1.00;;;30.90;99.90;34.20;102402.00;;;;5041874;28;20209;-63
2023/06/23 12:22:51;;;;;;;0.10;0.10;;;31.00;99.90;35.10;102395.00;;;;5052998;28;20197;-63
2023/06/23 12:25:29;;;;;;;0.40;0.40;;;31.00;99.90;35.70;102388.00;;;;5042212;28;20624;-63
2023/06/23 12:28:01;;;;;;;0.17;0.17;;;31.30;99.90;35.40;102393.00;;;;5033867;28;20229;-63
2023/06/23 12:30:43;;;;;;;3.28;3.08;;;31.80;99.90;32.90;102411.00;;;;5036411;28;20302;-63
2023/06/23 12:33:16;;;;;;;0.10;0.10;;;30.20;99.90;33.90;102407.00;;;;5044098;28;20214;-63
2023/06/23 12:36:05;;;;;;;0.32;0.32;;;30.00;99.90;34.60;102399.00;;;;5037797;28;20625;-63
2023/06/23 12:38:40;;;;;;;0.68;0.68;;;30.40;99.90;34.30;102397.00;;;;5039889;28;20198;-63
2023/06/23 12:41:24;;;;;;;0.70;0.65;;;30.40;99.90;33.20;102394.00;;;;5051955;28;20193;-63
2023/06/23 12:44:03;;;;;;;5.20;4.68;;;29.60;99.90;32.80;102411.00;;;;5051377;28;20197;-62
2023/06/23 12:46:31;;;;;;;3.95;3.03;;;29.50;99.90;31.80;102404.00;;;;5040847;28;20208;-63
2023/06/23 12:49:00;;;;;;;1.65;1.55;;;28.80;99.90;31.30;102385.00;;;;5037820;28;20217;-62
2023/06/23 12:51:38;;;;;;;0.55;0.55;;;28.10;99.90;33.10;102396.00;;;;5043622;28;20249;-63
2023/06/23 12:54:04;;;;;;;0.52;0.52;;;28.80;99.90;32.90;102396.00;;;;5034632;28;20194;-63
2023/06/23 12:56:35;;;;;;;0.10;0.10;;;28.80;99.90;33.70;102382.00;;;;5037210;28;20273;-63
2023/06/23 12:59:06;;;;;;;0.50;0.50;;;29.40;99.90;33.30;102384.00;;;;5043486;28;20213;-63
2023/06/23 13:01:38;;;;;;;0.85;0.85;;;29.20;99.90;34.00;102381.00;;;;5046880;28;20193;-63
2023/06/23 13:04:07;;;;;;;0.10;0.10;;;29.80;99.90;34.50;102385.00;;;;5046464;28;20218;-63
2023/06/23 13:06:36;;;;;;;0.10;0.10;;;30.20;99.90;35.30;102375.00;;;;5046472;28;20265;-63
2023/06/23 13:09:03;;;;;;;0.60;0.60;;;30.60;99.90;34.10;102350.00;;;;5044425;28;20601;-63
2023/06/23 13:11:33;;;;;;;0.15;0.15;;;30.80;99.90;34.00;102376.00;;;;5036500;28;20305;-63
2023/06/23 13:14:01;;;;;;;0.40;0.40;;;30.20;99.90;35.20;102366.00;;;;5038155;28;20206;-63
2023/06/23 13:16:29;;;;;;;2.95;2.70;;;30.60;99.90;32.60;102371.00;;;;5027573;28;20210;-63
2023/06/23 13:19:01;;;;;;;1.10;1.10;;;29.80;99.90;32.80;102350.00;;;;5035610;28;20252;-63
2023/06/23 13:21:30;;;;;;;1.40;1.33;;;29.20;99.90;31.40;102390.00;;;;5016958;28;20210;-63
2023/06/23 13:24:01;;;;;;;1.00;1.00;;;28.50;99.90;31.90;102368.00;;;;5045188;28;20727;-63
2023/06/23 13:26:32;;;;;;;0.10;0.10;;;28.20;99.90;32.60;102381.00;;;;5035717;28;20223;-63
2023/06/23 13:28:58;;;;;;;0.10;0.10;;;28.40;99.90;32.30;102386.00;;;;5051619;28;20194;-63
2023/06/23 13:31:28;;;;;;;0.10;0.10;;;28.60;99.90;33.80;102376.00;;;;5046236;28;20213;-63
2023/06/23 13:33:57;;;;;;;0.10;0.10;;;29.20;99.90;34.70;102366.00;;;;5043614;28;20243;-63
2023/06/23 13:36:30;;;;;;;0.20;0.20;;;29.80;99.90;32.40;102384.00;;;;5040633;28;20673;-63
2023/06/23 13:39:03;;;;;;;0.30;0.30;;;29.10;99.90;34.30;102371.00;;;;5027389;28;20202;-63
2023/06/23 13:41:34;;;;;;;1.27;1.23;;;29.60;99.90;33.50;102382.00;;;;5035316;28;20187;-63
2023/06/23 13:44:06;;;;;;;0.35;0.35;;;29.70;99.90;31.10;102390.00;;;;5033432;28;20683;-63
2023/06/23 13:46:38;;;;;;;0.10;0.10;;;28.50;99.90;33.60;102356.00;;;;5038603;28;20195;-63
2023/06/23 13:49:08;;;;;;;0.30;0.30;;;29.00;99.90;33.80;102369.00;;;;5035494;28;21029;-63
2023/06/23 13:51:41;;;;;;;1.17;1.08;;;29.60;99.90;34.40;102366.00;;;;5037639;28;20238;-63
2023/06/23 13:54:13;;;;;;;1.25;1.15;;;30.10;99.90;33.50;102359.00;;;;5019882;28;20279;-63
2023/06/23 13:56:46;;;;;;;0.10;0.10;;;29.70;99.90;33.70;102372.00;;;;5040077;28;20190;-63
2023/06/23 13:59:12;;;;;;;0.10;0.10;;;29.80;99.90;34.40;102365.00;;;;5046884;28;20203;-63
2023/06/23 14:01:43;;;;;;;0.40;0.40;;;30.10;99.90;33.50;102375.00;;;;5038595;28;20247;-63
2023/06/23 14:04:14;;;;;;;3.58;0.98;;;30.00;99.90;31.60;102359.00;;;;5034310;28;20537;-63
2023/06/23 14:06:40;;;;;;;0.47;0.47;;;29.20;99.90;31.80;102365.00;;;;5034713;28;20541;-63
2023/06/23 14:09:07;;;;;;;0.28;0.28;;;28.60;99.90;31.00;102382.00;;;;5034362;28;20333;-63
2023/06/23 14:11:41;;;;;;;2.85;1.90;;;27.80;99.90;31.90;102387.00;;;;5046410;28;20210;-63
2023/06/23 14:14:08;;;;;;;0.80;0.80;;;28.30;99.90;31.20;102390.00;;;;5040416;28;20200;-63
2023/06/23 14:16:35;;;;;;;0.15;0.15;;;27.90;99.90;31.70;102385.00;;;;5043149;28;20195;-63
2023/06/23 14:19:06;;;;;;;0.17;0.17;;;28.00;99.90;31.20;102384.00;;;;5035178;28;20201;-63
2023/06/23 14:21:32;;;;;;;0.28;0.28;;;28.10;99.90;32.10;102351.00;;;;5036794;28;20194;-63
2023/06/23 14:24:01;;;;;;;0.10;0.10;;;28.10;99.90;33.50;102361.00;;;;5051612;28;20197;-63
2023/06/23 14:26:31;;;;;;;0.47;0.45;;;28.90;99.90;30.90;102353.00;;;;5043174;28;20206;-63
2023/06/23 14:29:00;;;;;;;0.38;0.38;;;28.20;99.90;33.30;102349.00;;;;5041573;28;20198;-63
2023/06/23 14:31:32;;;;;;;0.10;0.10;;;28.80;99.90;33.70;102367.00;;;;5035002;28;20211;-63
2023/06/23 14:34:01;;;;;;;0.30;0.30;;;29.50;99.90;31.10;102375.00;;;;5036541;28;20191;-63
2023/06/23 14:36:30;;;;;;;0.35;0.35;;;28.50;99.90;32.00;102370.00;;;;5035833;28;20206;-63
2023/06/23 14:39:00;;;;;;;3.33;0.98;;;28.30;99.90;31.90;102361.00;;;;5039100;28;20274;-63
2023/06/23 14:41:27;;;;;;;0.32;0.32;;;28.40;99.90;32.10;102363.00;;;;5041120;28;20194;-63
2023/06/23 14:43:56;;;;;;;0.10;0.10;;;28.50;99.90;32.00;102373.00;;;;5034869;28;20225;-63
2023/06/23 14:46:24;;;;;;;0.20;0.20;;;28.50;99.90;32.30;102348.00;;;;5050246;28;20208;-63
2023/06/23 14:48:52;;;;;;;0.30;0.30;;;28.40;99.90;33.50;102358.00;;;;5051070;28;20598;-64
2023/06/23 14:51:21;;;;;;;0.20;0.13;;;28.80;99.90;33.10;102363.00;;;;5041061;28;20209;-63
2023/06/23 14:53:50;;;;;;;0.40;0.40;;;29.20;99.90;34.10;102365.00;;;;5038673;28;20206;-63
2023/06/23 14:56:21;;;;;;;0.10;0.10;;;29.60;99.90;33.50;102358.00;;;;5038338;28;20194;-63
2023/06/23 14:58:50;;;;;;;0.17;0.17;;;29.70;99.90;32.60;102366.00;;;;5033791;28;20199;-63
2023/06/23 15:01:16;;;;;;;0.10;0.10;;;29.10;99.90;33.80;102361.00;;;;5037203;28;20199;-64
2023/06/23 15:03:44;;;;;;;0.10;0.10;;;29.30;99.90;34.00;102357.00;;;;5039135;28;20205;-64
2023/06/23 15:06:19;;;;;;;0.57;0.53;;;29.80;99.90;34.20;102338.00;;;;5046012;28;20415;-64
2023/06/23 15:08:53;;;;;;;1.13;1.13;;;29.90;99.90;32.80;102373.00;;;;5037306;28;20286;-64
2023/06/23 15:11:25;;;;;;;0.10;0.10;;;29.50;99.90;32.60;102371.00;;;;5043504;28;20194;-63
2023/06/23 15:13:53;;;;;;;0.10;0.10;;;29.00;99.90;33.40;102361.00;;;;5044882;28;20201;-64
2023/06/23 15:16:22;;;;;;;0.13;0.13;;;29.10;99.90;33.00;102381.00;;;;5046703;28;20194;-64
2023/06/23 15:18:50;;;;;;;0.52;0.40;;;29.00;99.90;32.30;102374.00;;;;5034118;28;20198;-64
2023/06/23 15:21:23;;;;;;;0.43;0.43;;;28.90;99.90;33.10;102371.00;;;;5034920;28;20281;-64
2023/06/23 15:23:53;;;;;;;0.30;0.30;;;29.00;99.90;33.30;102367.00;;;;5046514;28;20189;-64
2023/06/23 15:26:22;;;;;;;0.10;0.10;;;29.00;99.90;31.40;102385.00;;;;5047833;28;20225;-64
2023/06/23 15:28:53;;;;;;;0.10;0.10;;;28.60;99.90;32.60;102373.00;;;;5044551;28;20657;-64
2023/06/23 15:31:29;;;;;;;0.10;0.10;;;28.60;99.90;32.40;102373.00;;;;5048547;28;20225;-64
2023/06/23 15:34:00;;;;;;;1.33;1.17;;;28.70;99.90;31.10;102373.00;;;;5044671;28;20190;-64
2023/06/23 15:36:39;;;;;;;0.10;0.10;;;28.40;99.90;32.50;102369.00;;;;5039820;28;20202;-64
2023/06/23 15:39:12;;;;;;;2.60;1.42;;;28.50;99.90;31.50;102376.00;;;;5043176;28;20190;-64
2023/06/23 15:41:41;;;;;;;0.10;0.10;;;28.30;99.90;32.10;102371.00;;;;5050786;28;20186;-64
2023/06/23 15:44:12;;;;;;;0.22;0.22;;;28.40;99.90;30.60;102363.00;;;;5039713;28;20197;-64
2023/06/23 15:46:41;;;;;;;0.10;0.10;;;28.00;99.90;32.40;102363.00;;;;5049907;28;20190;-63
2023/06/23 15:49:12;;;;;;;0.10;0.10;;;28.20;99.90;32.50;102365.00;;;;5049455;28;20202;-63
2023/06/23 15:51:51;;;;;;;0.45;0.45;;;28.50;99.90;31.70;102365.00;;;;5053520;28;20209;-63
2023/06/23 15:54:19;;;;;;;0.20;0.20;;;28.00;99.90;31.80;102368.00;;;;5038481;28;20198;-63
2023/06/23 15:56:48;;;;;;;0.15;0.15;;;28.10;99.90;33.30;102362.00;;;;5018063;28;20203;-63
2023/06/23 15:59:14;;;;;;;0.30;0.30;;;28.70;99.90;33.40;102356.00;;;;5051020;28;20248;-63
2023/06/23 16:01:40;;;;;;;0.10;0.10;;;28.90;99.90;34.20;102350.00;;;;5047261;28;20285;-63
2023/06/23 16:04:08;;;;;;;0.10;0.10;;;29.50;99.90;33.20;102365.00;;;;5041421;28;20206;-63
2023/06/23 16:06:39;;;;;;;0.10;0.10;;;29.30;99.90;32.40;102365.00;;;;5052701;28;20190;-63
2023/06/23 16:09:10;;;;;;;0.10;0.10;;;28.70;99.90;32.30;102353.00;;;;5037579;28;20719;-63
2023/06/23 16:11:41;;;;;;;0.40;0.40;;;28.50;99.90;33.20;102358.00;;;;5044420;28;20349;-63
2023/06/23 16:14:10;;;;;;;0.20;0.20;;;28.80;99.90;32.10;102359.00;;;;5034238;28;20716;-64
2023/06/23 16:16:36;;;;;;;0.10;0.10;;;28.40;99.90;32.30;102355.00;;;;5041231;28;20205;-64
2023/06/23 16:19:05;;;;;;;0.10;0.10;;;28.30;99.90;33.00;102366.00;;;;5044493;28;20194;-64
2023/06/23 16:21:31;;;;;;;0.88;0.47;;;28.70;99.90;32.50;102360.00;;;;5046868;28;20562;-64
2023/06/23 16:24:01;;;;;;;0.20;0.20;;;28.70;99.90;31.20;102385.00;;;;5033954;28;20207;-64
2023/06/23 16:26:30;;;;;;;0.10;0.10;;;28.00;99.90;31.60;102371.00;;;;5029675;28;20225;-64
2023/06/23 16:29:16;;;;;;;0.28;0.28;;;27.90;99.90;31.90;102369.00;;;;5039735;28;20634;-64
2023/06/23 16:31:48;;;;;;;1.67;1.58;;;28.00;99.90;31.70;102378.00;;;;5050732;28;20250;-64
2023/06/23 16:34:16;;;;;;;0.10;0.10;;;27.90;99.90;31.90;102376.00;;;;5032909;28;20234;-64
2023/06/23 16:36:46;;;;;;;0.22;0.22;;;27.80;99.90;31.10;102390.00;;;;5043912;28;20245;-64
2023/06/23 16:39:20;;;;;;;0.10;0.10;;;27.70;99.90;31.80;102384.00;;;;5041685;28;20195;-64
2023/06/23 16:41:50;;;;;;;0.95;0.95;;;27.80;99.90;32.70;102368.00;;;;5038275;28;20665;-64
2023/06/23 16:44:18;;;;;;;0.10;0.10;;;28.20;99.90;32.00;102372.00;;;;5043540;28;20325;-64
2023/06/23 16:46:44;;;;;;;0.93;0.93;;;28.20;99.90;31.50;102367.00;;;;5033638;28;20281;-64
2023/06/23 16:49:13;;;;;;;0.85;0.85;;;28.00;99.90;31.90;102348.00;;;;5036322;28;20290;-64
2023/06/23 16:51:44;;;;;;;1.70;1.27;;;28.10;99.90;31.40;102378.00;;;;5037003;28;20672;-64
2023/06/23 16:54:15;;;;;;;0.10;0.10;;;27.90;99.90;32.00;102364.00;;;;5035190;28;20191;-64
2023/06/23 16:56:46;;;;;;;0.50;0.50;;;27.90;99.90;31.80;102369.00;;;;5044976;28;20206;-64
2023/06/23 16:59:11;;;;;;;0.10;0.10;;;28.20;99.90;31.50;102365.00;;;;5042024;28;20239;-64
2023/06/23 17:01:43;;;;;;;0.10;0.10;;;27.80;99.90;32.60;102337.00;;;;5042308;28;20233;-64
2023/06/23 17:04:14;;;;;;;0.45;0.45;;;28.20;99.90;31.00;102394.00;;;;5043356;28;20193;-64
2023/06/23 17:06:43;;;;;;;0.65;0.65;;;28.00;99.90;31.40;102388.00;;;;5034170;28;20203;-64
2023/06/23 17:09:15;;;;;;;0.10;0.10;;;27.70;99.90;30.20;102407.00;;;;5033681;28;20629;-64
2023/06/23 17:11:43;;;;;;;0.52;0.38;;;27.30;99.90;31.80;102389.00;;;;5041379;28;20220;-63
2023/06/23 17:14:16;;;;;;;0.38;0.38;;;27.60;99.90;31.30;102393.00;;;;5038586;28;20194;-63
2023/06/23 17:16:46;;;;;;;0.10;0.10;;;27.60;99.90;32.00;102386.00;;;;5042480;28;20199;-64
2023/06/23 17:19:15;;;;;;;1.10;1.10;;;27.70;99.90;31.00;102386.00;;;;5047427;28;20226;-64
2023/06/23 17:21:43;;;;;;;0.10;0.10;;;27.90;99.90;32.20;102384.00;;;;5034742;28;20205;-64
2023/06/23 17:24:09;;;;;;;0.80;0.30;;;27.90;99.90;30.70;102398.00;;;;5035350;28;20191;-64
2023/06/23 17:26:41;;;;;;;0.40;0.40;;;27.70;99.90;29.90;102410.00;;;;5044904;28;20197;-64
2023/06/23 17:29:11;;;;;;;0.73;0.73;;;27.10;99.90;31.00;102387.00;;;;5025921;28;20202;-64
2023/06/23 17:31:41;;;;;;;0.57;0.57;;;27.20;99.90;31.50;102392.00;;;;5040330;28;20222;-64
2023/06/23 17:34:12;;;;;;;2.40;0.30;;;27.50;99.90;29.60;102414.00;;;;5035117;28;20203;-64
2023/06/23 17:36:39;;;;;;;0.60;0.60;;;26.90;99.90;29.60;102422.00;;;;5043258;28;20191;-64
2023/06/23 17:39:07;;;;;;;0.40;0.40;;;26.70;99.90;29.20;102418.00;;;;5039781;28;20194;-64
2023/06/23 17:41:36;;;;;;;6.82;2.72;;;26.30;99.90;29.60;102409.00;;;;5043414;28;20199;-63
2023/06/23 17:44:02;;;;;;;0.32;0.32;;;26.40;99.90;29.50;102401.00;;;;5042533;28;20251;-64
2023/06/23 17:46:32;;;;;;;1.58;1.42;;;26.20;99.90;29.70;102376.00;;;;5035504;28;20701;-63
2023/06/23 17:49:03;;;;;;;2.42;1.83;;;26.50;99.90;29.20;102399.00;;;;5051188;28;20218;-63
2023/06/23 17:51:34;;;;;;;1.10;1.00;;;26.30;99.90;28.80;102412.00;;;;5046968;28;20238;-63
2023/06/23 17:54:06;;;;;;;1.05;1.00;;;26.10;99.90;28.40;102381.00;;;;5041994;28;20201;-63
2023/06/23 17:56:34;;;;;;;0.10;0.10;;;25.70;99.90;28.90;102403.00;;;;5040736;28;20198;-63
2023/06/23 17:59:05;;;;;;;2.90;1.48;;;25.70;99.90;28.90;102404.00;;;;5049399;28;20198;-64
2023/06/23 18:01:31;;;;;;;0.43;0.43;;;25.90;99.90;28.50;102400.00;;;;5042214;28;20190;-63
2023/06/23 18:04:05;;;;;;;1.42;1.33;;;25.80;99.90;28.70;102402.00;;;;5032061;28;20922;-63
2023/06/23 18:06:34;;;;;;;8.77;1.88;;;25.80;99.90;28.60;102404.00;;;;5042871;28;20556;-64
2023/06/23 18:09:06;;;;;;;2.90;1.63;;;25.70;99.90;28.30;102401.00;;;;5018095;28;20256;-63
2023/06/23 18:11:53;;;;;;;1.10;0.80;;;25.60;99.90;28.10;102404.00;;;;5042107;28;20800;-63
2023/06/23 18:14:25;;;;;;;2.63;1.38;;;25.40;99.90;27.70;102392.00;;;;5033125;28;20237;-63
2023/06/23 18:16:51;;;;;;;1.20;1.02;;;25.30;99.90;27.40;102362.00;;;;5044926;28;20202;-63
2023/06/23 18:19:23;;;;;;;1.27;1.20;;;25.00;99.90;28.20;102369.00;;;;5034844;28;20198;-63
2023/06/23 18:21:53;;;;;;;0.93;0.93;;;25.20;99.90;27.50;102366.00;;;;5039959;28;20198;-63